sensor_id;sensor_type;location;lat;lon;timestamp;pressure;altitude;pressure_sealevel;temperature;humidity
63111;BME280;49201;53.426;10.300;2022-09-29T00:00:36;100063.41;;;5.44;96.53
63111;BME280;49201;53.426;10.300;2022-09-29T00:03:02;100063.19;;;5.37;96.67
63111;BME280;49201;53.426;10.300;2022-09-29T00:05:27;100058.84;;;5.33;96.86
63111;BME280;49201;53.426;10.300;2022-09-29T00:07:53;100055.38;;;5.29;96.35
63111;BME280;49201;53.426;10.300;2022-09-29T00:10:18;100067.19;;;5.27;96.94
63111;BME280;49201;53.426;10.300;2022-09-29T00:12:44;100068.69;;;5.21;96.55
63111;BME280;49201;53.426;10.300;2022-09-29T00:15:10;100066.97;;;5.20;95.83
63111;BME280;49201;53.426;10.300;2022-09-29T00:17:36;100060.03;;;5.14;96.02
63111;BME280;49201;53.426;10.300;2022-09-29T00:20:01;100066.00;;;5.15;96.04
63111;BME280;49201;53.426;10.300;2022-09-29T00:22:27;100056.72;;;5.17;96.25
63111;BME280;49201;53.426;10.300;2022-09-29T00:24:52;100061.84;;;5.18;96.22
63111;BME280;49201;53.426;10.300;2022-09-29T00:27:18;100066.84;;;5.15;96.48
63111;BME280;49201;53.426;10.300;2022-09-29T00:29:44;100069.31;;;5.14;96.54
63111;BME280;49201;53.426;10.300;2022-09-29T00:32:09;100068.38;;;5.10;96.45
63111;BME280;49201;53.426;10.300;2022-09-29T00:34:35;100062.31;;;5.05;96.03
63111;BME280;49201;53.426;10.300;2022-09-29T00:37:01;100067.19;;;4.98;96.26
63111;BME280;49201;53.426;10.300;2022-09-29T00:39:26;100060.41;;;4.98;95.82
63111;BME280;49201;53.426;10.300;2022-09-29T00:41:51;100066.13;;;4.91;95.64
63111;BME280;49201;53.426;10.300;2022-09-29T00:47:03;100066.91;;;4.89;96.24
63111;BME280;49201;53.426;10.300;2022-09-29T00:52:26;100066.69;;;4.81;95.75
63111;BME280;49201;53.426;10.300;2022-09-29T00:55:15;100063.28;;;4.81;96.04
63111;BME280;49201;53.426;10.300;2022-09-29T00:57:55;100065.81;;;4.81;95.61
63111;BME280;49201;53.426;10.300;2022-09-29T01:00:23;100056.44;;;4.78;95.70
63111;BME280;49201;53.426;10.300;2022-09-29T01:03:12;100057.22;;;4.76;95.17
63111;BME280;49201;53.426;10.300;2022-09-29T01:05:45;100061.53;;;4.78;95.50
63111;BME280;49201;53.426;10.300;2022-09-29T01:08:23;100067.53;;;4.80;95.48
63111;BME280;49201;53.426;10.300;2022-09-29T01:10:50;100064.22;;;4.83;95.88
63111;BME280;49201;53.426;10.300;2022-09-29T01:13:17;100061.84;;;4.89;95.94
63111;BME280;49201;53.426;10.300;2022-09-29T01:15:43;100061.94;;;4.92;96.59
63111;BME280;49201;53.426;10.300;2022-09-29T01:18:08;100064.50;;;4.93;96.73
63111;BME280;49201;53.426;10.300;2022-09-29T01:20:50;100064.50;;;4.93;97.02
63111;BME280;49201;53.426;10.300;2022-09-29T01:23:40;100065.25;;;4.89;97.79
63111;BME280;49201;53.426;10.300;2022-09-29T01:38:22;100072.03;;;4.90;97.21
63111;BME280;49201;53.426;10.300;2022-09-29T01:43:42;100061.75;;;4.86;97.81
63111;BME280;49201;53.426;10.300;2022-09-29T01:46:15;100062.56;;;4.85;97.80
63111;BME280;49201;53.426;10.300;2022-09-29T01:48:48;100062.41;;;4.79;97.35
63111;BME280;49201;53.426;10.300;2022-09-29T01:51:19;100058.09;;;4.76;97.43
63111;BME280;49201;53.426;10.300;2022-09-29T01:53:52;100059.66;;;4.73;97.04
63111;BME280;49201;53.426;10.300;2022-09-29T01:56:34;100064.78;;;4.74;96.72
63111;BME280;49201;53.426;10.300;2022-09-29T01:59:09;100065.50;;;4.70;96.62
63111;BME280;49201;53.426;10.300;2022-09-29T02:01:39;100062.13;;;4.70;96.61
63111;BME280;49201;53.426;10.300;2022-09-29T02:04:17;100068.84;;;4.69;96.59
63111;BME280;49201;53.426;10.300;2022-09-29T02:06:48;100068.84;;;4.69;97.07
63111;BME280;49201;53.426;10.300;2022-09-29T02:09:21;100066.25;;;4.66;97.02
63111;BME280;49201;53.426;10.300;2022-09-29T02:11:50;100059.44;;;4.65;97.35
63111;BME280;49201;53.426;10.300;2022-09-29T02:14:24;100063.63;;;4.63;97.39
63111;BME280;49201;53.426;10.300;2022-09-29T02:17:08;100060.97;;;4.60;97.22
63111;BME280;49201;53.426;10.300;2022-09-29T02:19:37;100064.38;;;4.61;97.30
63111;BME280;49201;53.426;10.300;2022-09-29T02:22:04;100068.53;;;4.59;97.21
63111;BME280;49201;53.426;10.300;2022-09-29T02:24:30;100066.81;;;4.58;97.41
63111;BME280;49201;53.426;10.300;2022-09-29T02:26:56;100069.22;;;4.53;97.68
63111;BME280;49201;53.426;10.300;2022-09-29T02:29:22;100063.28;;;4.53;97.49
63111;BME280;49201;53.426;10.300;2022-09-29T02:31:48;100064.88;;;4.49;97.44
63111;BME280;49201;53.426;10.300;2022-09-29T02:34:16;100059.09;;;4.53;96.95
63111;BME280;49201;53.426;10.300;2022-09-29T02:40:48;100075.00;;;4.49;97.77
63111;BME280;49201;53.426;10.300;2022-09-29T02:43:12;100070.66;;;4.45;97.56
63111;BME280;49201;53.426;10.300;2022-09-29T02:51:22;100072.28;;;4.43;97.07
63111;BME280;49201;53.426;10.300;2022-09-29T02:56:42;100076.63;;;4.47;97.71
63111;BME280;49201;53.426;10.300;2022-09-29T02:59:23;100070.28;;;4.60;99.42
63111;BME280;49201;53.426;10.300;2022-09-29T03:01:54;100082.91;;;4.58;99.16
63111;BME280;49201;53.426;10.300;2022-09-29T03:04:21;100077.66;;;4.54;99.64
63111;BME280;49201;53.426;10.300;2022-09-29T03:06:47;100076.81;;;4.53;99.31
63111;BME280;49201;53.426;10.300;2022-09-29T03:09:12;100089.28;;;4.47;99.93
63111;BME280;49201;53.426;10.300;2022-09-29T03:11:37;100079.13;;;4.46;99.70
63111;BME280;49201;53.426;10.300;2022-09-29T03:14:03;100083.94;;;4.38;99.78
63111;BME280;49201;53.426;10.300;2022-09-29T03:16:31;100078.69;;;4.32;99.77
63111;BME280;49201;53.426;10.300;2022-09-29T03:18:56;100079.41;;;4.28;99.38
63111;BME280;49201;53.426;10.300;2022-09-29T03:21:22;100078.56;;;4.28;98.69
63111;BME280;49201;53.426;10.300;2022-09-29T03:23:47;100091.81;;;4.21;99.01
63111;BME280;49201;53.426;10.300;2022-09-29T03:26:13;100086.69;;;4.19;98.34
63111;BME280;49201;53.426;10.300;2022-09-29T03:28:38;100086.69;;;4.18;98.68
63111;BME280;49201;53.426;10.300;2022-09-29T03:31:05;100088.28;;;4.16;97.85
63111;BME280;49201;53.426;10.300;2022-09-29T03:33:31;100078.16;;;4.16;97.98
63111;BME280;49201;53.426;10.300;2022-09-29T03:35:56;100081.50;;;4.15;97.54
63111;BME280;49201;53.426;10.300;2022-09-29T03:38:22;100078.22;;;4.17;98.08
63111;BME280;49201;53.426;10.300;2022-09-29T03:40:47;100077.28;;;4.15;97.76
63111;BME280;49201;53.426;10.300;2022-09-29T03:43:13;100082.34;;;4.15;97.55
63111;BME280;49201;53.426;10.300;2022-09-29T03:45:47;100086.50;;;4.13;97.95
63111;BME280;49201;53.426;10.300;2022-09-29T03:48:13;100090.75;;;4.14;97.72
63111;BME280;49201;53.426;10.300;2022-09-29T03:50:38;100091.59;;;4.13;97.73
63111;BME280;49201;53.426;10.300;2022-09-29T03:53:04;100100.00;;;4.12;97.83
63111;BME280;49201;53.426;10.300;2022-09-29T03:55:29;100092.16;;;4.05;97.43
63111;BME280;49201;53.426;10.300;2022-09-29T03:57:54;100094.69;;;4.05;98.11
63111;BME280;49201;53.426;10.300;2022-09-29T04:00:20;100092.22;;;4.06;98.01
63111;BME280;49201;53.426;10.300;2022-09-29T04:02:45;100097.09;;;4.02;97.47
63111;BME280;49201;53.426;10.300;2022-09-29T04:05:11;100092.88;;;4.01;97.49
63111;BME280;49201;53.426;10.300;2022-09-29T04:07:36;100100.41;;;3.99;97.69
63111;BME280;49201;53.426;10.300;2022-09-29T04:10:02;100097.72;;;3.95;97.19
63111;BME280;49201;53.426;10.300;2022-09-29T04:12:28;100106.88;;;3.91;97.04
63111;BME280;49201;53.426;10.300;2022-09-29T04:14:53;100105.22;;;3.92;97.34
63111;BME280;49201;53.426;10.300;2022-09-29T04:17:19;100111.13;;;3.92;97.81
63111;BME280;49201;53.426;10.300;2022-09-29T04:19:46;100112.00;;;3.93;97.77
63111;BME280;49201;53.426;10.300;2022-09-29T04:22:14;100113.72;;;3.94;97.49
63111;BME280;49201;53.426;10.300;2022-09-29T04:24:41;100114.47;;;3.91;98.15
63111;BME280;49201;53.426;10.300;2022-09-29T04:27:06;100111.84;;;3.88;97.61
63111;BME280;49201;53.426;10.300;2022-09-29T04:29:31;100109.31;;;3.88;98.22
63111;BME280;49201;53.426;10.300;2022-09-29T04:31:57;100114.28;;;3.85;98.35
63111;BME280;49201;53.426;10.300;2022-09-29T04:34:22;100115.16;;;3.87;98.33
63111;BME280;49201;53.426;10.300;2022-09-29T04:36:48;100128.06;;;3.93;98.21
63111;BME280;49201;53.426;10.300;2022-09-29T04:39:13;100124.06;;;4.00;98.82
63111;BME280;49201;53.426;10.300;2022-09-29T04:41:38;100130.94;;;4.04;98.85
63111;BME280;49201;53.426;10.300;2022-09-29T04:44:05;100127.56;;;4.03;98.99
63111;BME280;49201;53.426;10.300;2022-09-29T04:46:31;100123.31;;;4.02;98.72
63111;BME280;49201;53.426;10.300;2022-09-29T04:48:56;100119.13;;;4.04;99.77
63111;BME280;49201;53.426;10.300;2022-09-29T04:51:22;100129.44;;;4.09;99.41
63111;BME280;49201;53.426;10.300;2022-09-29T04:53:47;100130.28;;;4.09;100.00
63111;BME280;49201;53.426;10.300;2022-09-29T04:56:13;100126.63;;;4.01;99.85
63111;BME280;49201;53.426;10.300;2022-09-29T04:58:38;100138.53;;;4.04;100.00
63111;BME280;49201;53.426;10.300;2022-09-29T05:01:08;100128.19;;;3.98;100.00
63111;BME280;49201;53.426;10.300;2022-09-29T05:03:34;100130.78;;;3.99;99.73
63111;BME280;49201;53.426;10.300;2022-09-29T05:06:00;100133.97;;;3.94;100.00
63111;BME280;49201;53.426;10.300;2022-09-29T05:08:25;100135.66;;;3.93;100.00
63111;BME280;49201;53.426;10.300;2022-09-29T05:10:51;100135.72;;;3.95;99.86
63111;BME280;49201;53.426;10.300;2022-09-29T05:13:16;100136.63;;;3.97;99.13
63111;BME280;49201;53.426;10.300;2022-09-29T05:15:41;100138.38;;;3.99;99.06
63111;BME280;49201;53.426;10.300;2022-09-29T05:18:07;100137.78;;;4.06;99.67
63111;BME280;49201;53.426;10.300;2022-09-29T05:20:32;100146.44;;;4.13;99.66
63111;BME280;49201;53.426;10.300;2022-09-29T05:22:58;100140.56;;;4.14;99.83
63111;BME280;49201;53.426;10.300;2022-09-29T05:25:25;100144.78;;;4.13;99.61
63111;BME280;49201;53.426;10.300;2022-09-29T05:27:52;100138.88;;;4.14;99.68
63111;BME280;49201;53.426;10.300;2022-09-29T05:30:17;100149.91;;;4.15;100.00
63111;BME280;49201;53.426;10.300;2022-09-29T05:32:43;100143.25;;;4.18;100.00
63111;BME280;49201;53.426;10.300;2022-09-29T05:35:08;100142.69;;;4.27;100.00
63111;BME280;49201;53.426;10.300;2022-09-29T05:37:34;100145.31;;;4.30;100.00
63111;BME280;49201;53.426;10.300;2022-09-29T05:39:59;100147.03;;;4.31;100.00
63111;BME280;49201;53.426;10.300;2022-09-29T05:42:25;100153.03;;;4.33;100.00
63111;BME280;49201;53.426;10.300;2022-09-29T05:44:52;100156.53;;;4.36;100.00
63111;BME280;49201;53.426;10.300;2022-09-29T05:47:17;100152.47;;;4.41;100.00
63111;BME280;49201;53.426;10.300;2022-09-29T05:49:43;100150.03;;;4.44;100.00
63111;BME280;49201;53.426;10.300;2022-09-29T05:52:08;100152.81;;;4.52;100.00
63111;BME280;49201;53.426;10.300;2022-09-29T05:54:34;100143.81;;;4.61;100.00
63111;BME280;49201;53.426;10.300;2022-09-29T05:56:59;100146.44;;;4.64;100.00
63111;BME280;49201;53.426;10.300;2022-09-29T05:59:24;100143.31;;;4.71;100.00
63111;BME280;49201;53.426;10.300;2022-09-29T06:01:50;100141.84;;;4.79;100.00
63111;BME280;49201;53.426;10.300;2022-09-29T06:04:15;100137.25;;;4.94;100.00
63111;BME280;49201;53.426;10.300;2022-09-29T06:06:41;100144.44;;;5.09;100.00
63111;BME280;49201;53.426;10.300;2022-09-29T06:09:08;100133.75;;;5.19;100.00
63111;BME280;49201;53.426;10.300;2022-09-29T06:11:33;100142.59;;;5.31;100.00
63111;BME280;49201;53.426;10.300;2022-09-29T06:14:00;100147.94;;;5.40;100.00
63111;BME280;49201;53.426;10.300;2022-09-29T06:16:27;100145.75;;;5.54;100.00
63111;BME280;49201;53.426;10.300;2022-09-29T06:18:53;100147.69;;;5.62;100.00
63111;BME280;49201;53.426;10.300;2022-09-29T06:21:25;100151.47;;;5.76;100.00
63111;BME280;49201;53.426;10.300;2022-09-29T06:23:52;100144.94;;;5.84;100.00
63111;BME280;49201;53.426;10.300;2022-09-29T06:26:19;100151.97;;;5.94;100.00
63111;BME280;49201;53.426;10.300;2022-09-29T06:28:46;100150.66;;;6.08;100.00
63111;BME280;49201;53.426;10.300;2022-09-29T06:31:15;100145.13;;;6.23;100.00
63111;BME280;49201;53.426;10.300;2022-09-29T06:33:41;100151.44;;;6.38;100.00
63111;BME280;49201;53.426;10.300;2022-09-29T06:36:19;100145.00;;;6.52;100.00
63111;BME280;49201;53.426;10.300;2022-09-29T06:39:08;100146.09;;;6.63;100.00
63111;BME280;49201;53.426;10.300;2022-09-29T06:41:33;100151.72;;;6.84;100.00
63111;BME280;49201;53.426;10.300;2022-09-29T06:44:00;100152.00;;;6.98;100.00
63111;BME280;49201;53.426;10.300;2022-09-29T06:46:25;100154.00;;;7.11;100.00
63111;BME280;49201;53.426;10.300;2022-09-29T06:48:52;100151.06;;;7.31;100.00
63111;BME280;49201;53.426;10.300;2022-09-29T06:51:18;100157.94;;;7.35;100.00
63111;BME280;49201;53.426;10.300;2022-09-29T06:53:47;100153.00;;;7.43;100.00
63111;BME280;49201;53.426;10.300;2022-09-29T06:56:13;100162.66;;;7.59;100.00
63111;BME280;49201;53.426;10.300;2022-09-29T06:58:38;100163.31;;;7.50;98.93
63111;BME280;49201;53.426;10.300;2022-09-29T07:01:04;100156.25;;;7.77;99.01
63111;BME280;49201;53.426;10.300;2022-09-29T07:03:31;100156.88;;;8.12;97.77
63111;BME280;49201;53.426;10.300;2022-09-29T07:06:01;100159.69;;;7.81;98.71
63111;BME280;49201;53.426;10.300;2022-09-29T07:08:26;100164.06;;;7.86;97.54
63111;BME280;49201;53.426;10.300;2022-09-29T07:10:53;100160.75;;;7.90;98.04
63111;BME280;49201;53.426;10.300;2022-09-29T07:13:18;100166.28;;;8.14;96.37
63111;BME280;49201;53.426;10.300;2022-09-29T07:15:44;100171.50;;;8.20;97.00
63111;BME280;49201;53.426;10.300;2022-09-29T07:18:12;100176.63;;;8.20;96.99
63111;BME280;49201;53.426;10.300;2022-09-29T07:20:38;100165.91;;;8.39;95.67
63111;BME280;49201;53.426;10.300;2022-09-29T07:23:05;100165.28;;;8.52;95.91
63111;BME280;49201;53.426;10.300;2022-09-29T07:25:32;100172.34;;;8.68;95.13
63111;BME280;49201;53.426;10.300;2022-09-29T07:27:59;100168.44;;;8.90;94.78
63111;BME280;49201;53.426;10.300;2022-09-29T07:30:24;100163.50;;;9.00;94.77
63111;BME280;49201;53.426;10.300;2022-09-29T07:32:52;100160.44;;;9.25;94.28
63111;BME280;49201;53.426;10.300;2022-09-29T07:35:19;100163.06;;;9.31;94.20
63111;BME280;49201;53.426;10.300;2022-09-29T07:37:50;100167.63;;;9.55;93.63
63111;BME280;49201;53.426;10.300;2022-09-29T07:40:16;100157.84;;;9.92;92.91
63111;BME280;49201;53.426;10.300;2022-09-29T07:42:41;100169.63;;;9.80;92.18
63111;BME280;49201;53.426;10.300;2022-09-29T07:47:32;100169.50;;;10.47;91.09
63111;BME280;49201;53.426;10.300;2022-09-29T07:49:58;100172.31;;;10.78;89.42
63111;BME280;49201;53.426;10.300;2022-09-29T07:52:23;100166.31;;;10.73;89.01
63111;BME280;49201;53.426;10.300;2022-09-29T07:54:49;100167.38;;;10.99;88.65
63111;BME280;49201;53.426;10.300;2022-09-29T07:57:14;100169.22;;;11.26;87.72
63111;BME280;49201;53.426;10.300;2022-09-29T07:59:40;100164.03;;;11.12;87.41
63111;BME280;49201;53.426;10.300;2022-09-29T08:02:05;100163.44;;;11.58;86.09
63111;BME280;49201;53.426;10.300;2022-09-29T08:04:32;100166.91;;;11.71;85.17
63111;BME280;49201;53.426;10.300;2022-09-29T08:06:57;100164.22;;;11.50;85.86
63111;BME280;49201;53.426;10.300;2022-09-29T08:09:22;100166.97;;;11.84;85.61
63111;BME280;49201;53.426;10.300;2022-09-29T08:11:49;100177.31;;;12.14;84.50
63111;BME280;49201;53.426;10.300;2022-09-29T08:14:14;100167.94;;;12.33;83.64
63111;BME280;49201;53.426;10.300;2022-09-29T08:16:39;100168.72;;;12.11;83.75
63111;BME280;49201;53.426;10.300;2022-09-29T08:19:06;100173.91;;;12.26;84.24
63111;BME280;49201;53.426;10.300;2022-09-29T08:21:32;100168.78;;;12.80;82.68
63111;BME280;49201;53.426;10.300;2022-09-29T08:24:01;100161.97;;;13.11;81.85
63111;BME280;49201;53.426;10.300;2022-09-29T08:26:30;100160.06;;;13.62;80.55
63111;BME280;49201;53.426;10.300;2022-09-29T08:28:56;100166.72;;;14.05;78.27
63111;BME280;49201;53.426;10.300;2022-09-29T08:31:23;100167.34;;;14.48;76.86
63111;BME280;49201;53.426;10.300;2022-09-29T08:33:50;100165.63;;;14.48;74.29
63111;BME280;49201;53.426;10.300;2022-09-29T08:36:17;100167.69;;;13.88;76.69
63111;BME280;49201;53.426;10.300;2022-09-29T08:39:01;100178.00;;;13.79;78.17
63111;BME280;49201;53.426;10.300;2022-09-29T08:44:02;100186.75;;;13.34;81.40
63111;BME280;49201;53.426;10.300;2022-09-29T08:46:54;100185.03;;;13.42;79.66
63111;BME280;49201;53.426;10.300;2022-09-29T08:49:21;100184.06;;;13.66;79.97
63111;BME280;49201;53.426;10.300;2022-09-29T08:51:55;100189.06;;;14.00;78.41
63111;BME280;49201;53.426;10.300;2022-09-29T08:54:26;100195.91;;;14.04;78.14
63111;BME280;49201;53.426;10.300;2022-09-29T08:56:54;100192.59;;;13.81;76.84
63111;BME280;49201;53.426;10.300;2022-09-29T08:59:20;100195.16;;;13.87;76.76
63111;BME280;49201;53.426;10.300;2022-09-29T09:05:51;100191.66;;;13.99;74.80
63111;BME280;49201;53.426;10.300;2022-09-29T09:10:38;100190.03;;;15.09;71.72
63111;BME280;49201;53.426;10.300;2022-09-29T09:24:23;100199.25;;;15.31;69.20
63111;BME280;49201;53.426;10.300;2022-09-29T09:26:52;100195.72;;;15.44;67.94
63111;BME280;49201;53.426;10.300;2022-09-29T09:29:31;100193.56;;;15.79;67.96
63111;BME280;49201;53.426;10.300;2022-09-29T09:32:01;100189.31;;;16.40;66.13
63111;BME280;49201;53.426;10.300;2022-09-29T09:34:36;100193.00;;;16.23;65.19
63111;BME280;49201;53.426;10.300;2022-09-29T09:40:00;100183.25;;;18.28;59.74
63111;BME280;49201;53.426;10.300;2022-09-29T09:42:33;100180.66;;;20.24;53.68
63111;BME280;49201;53.426;10.300;2022-09-29T09:45:04;100179.09;;;20.72;52.77
63111;BME280;49201;53.426;10.300;2022-09-29T09:47:37;100186.53;;;19.39;53.06
63111;BME280;49201;53.426;10.300;2022-09-29T09:50:13;100187.19;;;19.78;52.73
63111;BME280;49201;53.426;10.300;2022-09-29T09:52:55;100181.47;;;19.96;52.53
63111;BME280;49201;53.426;10.300;2022-09-29T09:55:26;100188.16;;;19.74;52.40
63111;BME280;49201;53.426;10.300;2022-09-29T10:01:05;100180.91;;;21.22;49.01
63111;BME280;49201;53.426;10.300;2022-09-29T10:03:32;100177.75;;;22.74;45.60
63111;BME280;49201;53.426;10.300;2022-09-29T10:05:58;100179.84;;;22.21;46.26
63111;BME280;49201;53.426;10.300;2022-09-29T10:08:32;100183.94;;;21.82;46.60
63111;BME280;49201;53.426;10.300;2022-09-29T10:13:40;100186.97;;;23.83;42.08
63111;BME280;49201;53.426;10.300;2022-09-29T10:16:14;100180.00;;;24.20;41.77
63111;BME280;49201;53.426;10.300;2022-09-29T10:18:44;100183.28;;;23.08;43.18
63111;BME280;49201;53.426;10.300;2022-09-29T10:21:39;100180.53;;;24.45;40.32
63111;BME280;49201;53.426;10.300;2022-09-29T10:26:48;100182.78;;;25.41;38.73
63111;BME280;49201;53.426;10.300;2022-09-29T10:29:37;100190.25;;;25.31;38.75
63111;BME280;49201;53.426;10.300;2022-09-29T10:32:12;100183.38;;;24.95;39.03
63111;BME280;49201;53.426;10.300;2022-09-29T10:34:44;100177.09;;;27.62;34.45
63111;BME280;49201;53.426;10.300;2022-09-29T10:39:46;100181.44;;;28.60;34.23
63111;BME280;49201;53.426;10.300;2022-09-29T10:44:50;100179.88;;;30.34;30.56
63111;BME280;49201;53.426;10.300;2022-09-29T10:47:16;100185.53;;;29.17;32.06
63111;BME280;49201;53.426;10.300;2022-09-29T10:49:41;100187.94;;;28.14;33.35
63111;BME280;49201;53.426;10.300;2022-09-29T10:52:22;100192.31;;;26.84;34.97
63111;BME280;49201;53.426;10.300;2022-09-29T10:55:00;100205.44;;;23.80;41.66
63111;BME280;49201;53.426;10.300;2022-09-29T10:57:31;100210.28;;;23.49;40.43
63111;BME280;49201;53.426;10.300;2022-09-29T10:59:58;100218.09;;;22.23;44.42
63111;BME280;49201;53.426;10.300;2022-09-29T11:02:31;100227.56;;;20.20;48.47
63111;BME280;49201;53.426;10.300;2022-09-29T11:05:02;100228.94;;;19.06;51.84
63111;BME280;49201;53.426;10.300;2022-09-29T11:07:28;100231.75;;;18.97;52.16
63111;BME280;49201;53.426;10.300;2022-09-29T11:09:56;100233.84;;;18.82;53.87
63111;BME280;49201;53.426;10.300;2022-09-29T11:14:57;100235.84;;;17.92;57.11
63111;BME280;49201;53.426;10.300;2022-09-29T11:17:38;100247.50;;;17.21;59.28
63111;BME280;49201;53.426;10.300;2022-09-29T11:20:09;100253.00;;;16.47;61.07
63111;BME280;49201;53.426;10.300;2022-09-29T11:31:07;100246.63;;;18.54;54.54
63111;BME280;49201;53.426;10.300;2022-09-29T11:39:13;100245.56;;;19.66;52.40
63111;BME280;49201;53.426;10.300;2022-09-29T11:42:12;100253.00;;;17.53;57.68
63111;BME280;49201;53.426;10.300;2022-09-29T11:45:01;100264.00;;;17.64;58.93
63111;BME280;49201;53.426;10.300;2022-09-29T11:50:48;100271.13;;;15.72;65.37
63111;BME280;49201;53.426;10.300;2022-09-29T12:03:37;100280.59;;;14.70;70.44
63111;BME280;49201;53.426;10.300;2022-09-29T12:12:07;100289.34;;;14.41;72.81
63111;BME280;49201;53.426;10.300;2022-09-29T12:17:14;100294.53;;;14.30;73.39
63111;BME280;49201;53.426;10.300;2022-09-29T12:19:44;100290.19;;;14.43;73.98
63111;BME280;49201;53.426;10.300;2022-09-29T12:22:14;100290.91;;;14.64;73.04
63111;BME280;49201;53.426;10.300;2022-09-29T12:24:49;100290.91;;;14.63;73.29
63111;BME280;49201;53.426;10.300;2022-09-29T12:29:56;100293.72;;;14.22;73.73
63111;BME280;49201;53.426;10.300;2022-09-29T12:32:27;100292.88;;;14.08;74.46
63111;BME280;49201;53.426;10.300;2022-09-29T12:40:36;100310.13;;;13.79;75.10
63111;BME280;49201;53.426;10.300;2022-09-29T12:43:31;100302.41;;;13.67;75.44
63111;BME280;49201;53.426;10.300;2022-09-29T12:46:05;100307.53;;;13.84;75.13
63111;BME280;49201;53.426;10.300;2022-09-29T12:48:41;100301.53;;;13.82;74.91
63111;BME280;49201;53.426;10.300;2022-09-29T12:51:29;100306.72;;;13.76;75.80
63111;BME280;49201;53.426;10.300;2022-09-29T12:56:43;100304.94;;;13.91;75.81
63111;BME280;49201;53.426;10.300;2022-09-29T12:59:15;100301.50;;;14.01;75.66
63111;BME280;49201;53.426;10.300;2022-09-29T13:01:46;100308.34;;;14.04;74.99
63111;BME280;49201;53.426;10.300;2022-09-29T13:07:16;100315.19;;;14.09;74.75
63111;BME280;49201;53.426;10.300;2022-09-29T13:09:58;100317.81;;;13.93;74.90
63111;BME280;49201;53.426;10.300;2022-09-29T13:18:49;100317.84;;;13.88;75.57
63111;BME280;49201;53.426;10.300;2022-09-29T13:21:39;100323.78;;;14.02;76.19
63111;BME280;49201;53.426;10.300;2022-09-29T13:24:29;100318.66;;;13.99;76.05
63111;BME280;49201;53.426;10.300;2022-09-29T13:27:22;100319.50;;;13.97;76.26
63111;BME280;49201;53.426;10.300;2022-09-29T13:32:32;100328.09;;;13.91;75.83
63111;BME280;49201;53.426;10.300;2022-09-29T13:35:02;100319.50;;;14.00;75.48
63111;BME280;49201;53.426;10.300;2022-09-29T13:37:52;100326.41;;;13.92;75.65
63111;BME280;49201;53.426;10.300;2022-09-29T13:40:24;100326.41;;;13.86;75.39
63111;BME280;49201;53.426;10.300;2022-09-29T13:42:55;100324.72;;;13.85;75.50
63111;BME280;49201;53.426;10.300;2022-09-29T13:47:54;100321.25;;;13.92;75.32
63111;BME280;49201;53.426;10.300;2022-09-29T13:58:33;100315.22;;;14.08;74.24
63111;BME280;49201;53.426;10.300;2022-09-29T14:01:04;100319.47;;;14.12;74.49
63111;BME280;49201;53.426;10.300;2022-09-29T14:06:11;100320.28;;;14.20;74.72
63111;BME280;49201;53.426;10.300;2022-09-29T14:08:43;100320.34;;;14.05;74.14
63111;BME280;49201;53.426;10.300;2022-09-29T14:11:18;100321.19;;;14.08;74.20
63111;BME280;49201;53.426;10.300;2022-09-29T14:13:47;100322.91;;;14.09;75.32
63111;BME280;49201;53.426;10.300;2022-09-29T14:16:26;100324.59;;;14.15;75.32
63111;BME280;49201;53.426;10.300;2022-09-29T14:19:06;100323.78;;;14.05;75.33
63111;BME280;49201;53.426;10.300;2022-09-29T14:21:56;100322.06;;;14.09;75.02
63111;BME280;49201;53.426;10.300;2022-09-29T14:29:54;100322.09;;;14.00;75.63
63111;BME280;49201;53.426;10.300;2022-09-29T14:32:31;100325.50;;;14.02;75.95
63111;BME280;49201;53.426;10.300;2022-09-29T14:34:58;100328.94;;;14.01;76.33
63111;BME280;49201;53.426;10.300;2022-09-29T14:37:25;100334.97;;;13.94;76.78
63111;BME280;49201;53.426;10.300;2022-09-29T14:39:53;100336.69;;;13.92;76.88
63111;BME280;49201;53.426;10.300;2022-09-29T14:42:38;100334.13;;;13.89;76.94
63111;BME280;49201;53.426;10.300;2022-09-29T14:45:06;100337.56;;;13.89;77.83
63111;BME280;49201;53.426;10.300;2022-09-29T14:48:09;100340.13;;;13.89;78.22
63111;BME280;49201;53.426;10.300;2022-09-29T14:51:08;100341.00;;;13.90;78.38
63111;BME280;49201;53.426;10.300;2022-09-29T14:54:02;100348.75;;;13.82;78.62
63111;BME280;49201;53.426;10.300;2022-09-29T14:56:37;100347.03;;;13.75;79.53
63111;BME280;49201;53.426;10.300;2022-09-29T15:02:22;100360.75;;;13.65;80.01
63111;BME280;49201;53.426;10.300;2022-09-29T15:04:49;100360.75;;;13.67;80.09
63111;BME280;49201;53.426;10.300;2022-09-29T15:07:17;100353.03;;;13.71;79.88
63111;BME280;49201;53.426;10.300;2022-09-29T15:09:48;100365.91;;;13.64;79.86
63111;BME280;49201;53.426;10.300;2022-09-29T15:12:15;100365.91;;;13.59;81.21
63111;BME280;49201;53.426;10.300;2022-09-29T15:14:44;100377.06;;;13.54;81.29
63111;BME280;49201;53.426;10.300;2022-09-29T15:17:30;100375.34;;;13.50;82.72
63111;BME280;49201;53.426;10.300;2022-09-29T15:22:48;100381.34;;;13.40;82.91
63111;BME280;49201;53.426;10.300;2022-09-29T15:25:30;100376.19;;;13.37;82.76
63111;BME280;49201;53.426;10.300;2022-09-29T15:28:15;100377.91;;;13.30;84.49
63111;BME280;49201;53.426;10.300;2022-09-29T15:30:42;100389.06;;;13.32;84.10
63111;BME280;49201;53.426;10.300;2022-09-29T15:33:29;100384.78;;;13.36;84.26
63111;BME280;49201;53.426;10.300;2022-09-29T15:40:54;100383.06;;;13.32;84.58
63111;BME280;49201;53.426;10.300;2022-09-29T15:43:22;100382.19;;;13.21;85.24